Latest Weather Observations for Darwin Harbour

IDD60801

Issued at 10:01 pm CST Monday 6 July 2020 (issued every 10 minutes, with the page automatically refreshed every 10 minutes)

About weather observations | Map of weather stations | Latest weather observations for NT | Other Formats
Station Details ID: 014072 Name: DARWIN NTC AWS Lat: -12.47 Lon: 130.85 Height: 0.0 m
Data from the previous 72 hours. | See also: Recent months for locations in Northern Territory
Date/Time
CST
Temp
°C
App
Temp
°C
Dew
Point
°C
Rel
Hum
%
Delta-T
°C
Wind Press
QNH
hPa
Press
MSL
hPa
Rain since
9am
mm
Dir  Spd
km/h
Gust
km/h
Spd
kts
Gust
kts
06/10:00pm 25.8 - - - - ENE 4 6 2 3 1014.5 1014.5 -
06/09:30pm 26.4 - - - - ENE 4 9 2 5 1014.3 1014.3 -
06/09:00pm 26.9 - - - - NE 4 9 2 5 1014.1 1014.1 -
06/08:30pm 27.0 - - - - NNE 7 13 4 7 1013.8 1013.8 -
06/08:00pm 26.8 - - - - NNW 4 9 2 5 1013.5 1013.5 -
06/07:30pm 26.8 - - - - NNE 6 11 3 6 1013.4 1013.3 -
06/07:00pm 27.1 - - - - N 2 7 1 4 1013.0 1012.9 -
06/06:30pm 27.1 - - - - WNW 4 7 2 4 1012.6 1012.5 -
06/06:00pm 27.1 - - - - NNE 11 22 6 12 1012.4 1012.3 -
06/05:30pm 27.6 - - - - N 9 17 5 9 1012.1 1012.0 -
06/05:00pm 28.4 - - - - NNW 9 15 5 8 1011.8 1011.7 -
06/04:30pm 30.0 - - - - E 6 11 3 6 1011.7 1011.6 -
06/04:00pm 29.6 - - - - SSE 9 15 5 8 1011.6 1011.5 -
06/03:30pm 28.9 - - - - ESE 15 19 8 10 1011.6 1011.5 -
06/03:00pm 29.1 - - - - ESE 17 20 9 11 1011.8 1011.7 -
06/02:30pm 28.7 - - - - ESE 19 22 10 12 1012.0 1011.9 -
06/02:00pm 28.6 - - - - ESE 19 24 10 13 1012.2 1012.1 -
06/01:30pm 27.7 - - - - ESE 22 26 12 14 1012.6 1012.5 -
06/01:00pm 27.4 - - - - ESE 24 28 13 15 1013.0 1012.9 -
06/12:30pm 27.0 - - - - ESE 22 30 12 16 1013.5 1013.5 -
06/12:00pm 26.6 - - - - ESE 28 33 15 18 1013.9 1013.9 -
06/11:30am 25.9 - - - - ESE 26 32 14 17 1014.5 1014.5 -
06/11:00am 25.3 - - - - ESE 30 37 16 20 1014.7 1014.7 -
06/10:30am 24.5 - - - - ESE 28 39 15 21 1015.1 1015.1 -
06/10:00am 23.7 - - - - ESE 32 39 17 21 1015.3 1015.3 -
06/09:30am 23.2 - - - - ESE 39 50 21 27 1015.3 1015.3 -
06/09:00am 23.1 - - - - SE 41 50 22 27 1015.4 1015.4 -
06/08:30am 22.4 - - - - SE 35 43 19 23 1015.2 1015.2 -
06/08:00am 21.9 - - - - SE 30 41 16 22 1015.0 1015.0 -
06/07:30am 21.8 - - - - SE 28 37 15 20 1014.7 1014.7 -
06/07:00am 21.9 - - - - SE 26 35 14 19 1014.5 1014.5 -
06/06:30am 21.9 - - - - SE 22 28 12 15 1014.2 1014.2 -
06/06:00am 22.1 - - - - SE 26 33 14 18 1014.0 1014.0 -
06/05:30am 22.7 - - - - ESE 24 30 13 16 1014.2 1014.2 -
06/05:00am 22.6 - - - - E 26 32 14 17 1014.1 1014.1 -
06/04:30am 22.7 - - - - E 28 33 15 18 1014.1 1014.1 -
06/04:00am 23.2 - - - - ESE 30 41 16 22 1014.0 1014.0 -
06/03:30am 23.3 - - - - ESE 32 39 17 21 1014.4 1014.4 -
06/03:00am 23.4 - - - - ESE 30 35 16 19 1014.4 1014.4 -
06/02:30am 23.5 - - - - SE 28 37 15 20 1014.5 1014.5 -
06/02:00am 23.4 - - - - SE 24 30 13 16 1014.7 1014.7 -
06/01:30am 23.2 - - - - SE 24 32 13 17 1014.8 1014.8 -
06/01:00am 23.3 - - - - SE 24 30 13 16 1014.9 1014.9 -
06/12:30am 23.6 - - - - SE 22 28 12 15 1014.8 1014.8 -
06/12:00am 23.8 - - - - SE 22 28 12 15 1014.7 1014.7 -
 
Date/Time
CST
Temp
°C
App
Temp
°C
Dew
Point
°C
Rel
Hum
%
Delta-T
°C
Wind Press
QNH
hPa
Press
MSL
hPa
Rain since
9am
mm
Dir  Spd
km/h
Gust
km/h
Spd
kts
Gust
kts
05/11:30pm 24.2 - - - - SE 19 24 10 13 1014.5 1014.5 -
05/11:00pm 25.1 - - - - SSE 19 26 10 14 1014.6 1014.6 -
05/10:30pm 25.5 - - - - SSE 17 26 9 14 1014.4 1014.4 -
05/10:00pm 25.7 - - - - SSE 22 30 12 16 1014.2 1014.2 -
05/09:30pm 26.3 - - - - SSE 20 30 11 16 1013.9 1013.9 -
05/09:00pm 26.8 - - - - SSE 20 28 11 15 1013.8 1013.8 -
05/08:30pm 26.5 - - - - SSE 17 20 9 11 1013.5 1013.5 -
05/08:00pm 26.7 - - - - SE 15 20 8 11 1013.3 1013.2 -
05/07:30pm 27.2 - - - - ESE 13 17 7 9 1012.9 1012.8 -
05/07:00pm 27.2 - - - - ESE 11 13 6 7 1012.7 1012.6 -
05/06:30pm 27.9 - - - - SE 13 19 7 10 1012.4 1012.3 -
05/06:00pm 28.2 - - - - E 19 24 10 13 1011.9 1011.8 -
05/05:30pm 28.3 - - - - ESE 17 22 9 12 1011.6 1011.5 -
05/05:00pm 28.4 - - - - E 17 24 9 13 1011.3 1011.2 -
05/04:30pm 28.2 - - - - SE 17 20 9 11 1011.3 1011.2 -
05/04:00pm 28.1 - - - - ESE 17 22 9 12 1011.3 1011.2 -
05/03:30pm 27.8 - - - - ESE 17 24 9 13 1011.4 1011.3 -
05/03:00pm 27.4 - - - - ESE 22 30 12 16 1011.6 1011.5 -
05/02:30pm 27.3 - - - - ESE 20 26 11 14 1012.0 1011.9 -
05/02:00pm 26.9 - - - - ESE 24 32 13 17 1012.5 1012.4 -
05/01:30pm 26.7 - - - - ESE 30 39 16 21 1012.8 1012.7 -
05/01:00pm 26.4 - - - - ESE 28 35 15 19 1013.3 1013.2 -
05/12:30pm 26.1 - - - - SE 28 35 15 19 1013.7 1013.7 -
05/12:00pm 25.4 - - - - SE 26 35 14 19 1014.2 1014.2 -
05/11:30am 25.1 - - - - SE 28 39 15 21 1014.8 1014.8 -
05/11:00am 24.8 - - - - ESE 26 41 14 22 1015.2 1015.2 -
05/10:30am 24.3 - - - - ESE 32 44 17 24 1015.6 1015.6 -
05/10:00am 23.9 - - - - SE 15 28 8 15 1015.7 1015.7 -
05/09:30am 23.2 - - - - SE 22 37 12 20 1015.8 1015.8 -
05/09:00am 23.0 - - - - SE 11 28 6 15 1015.6 1015.6 -
05/08:30am 22.6 - - - - SE 26 32 14 17 1015.4 1015.4 -
05/08:00am 22.3 - - - - ESE 19 28 10 15 1015.1 1015.1 -
05/07:30am 22.8 - - - - ESE 19 28 10 15 1014.9 1014.9 -
05/07:00am 23.1 - - - - E 15 28 8 15 1014.5 1014.5 -
05/06:30am 23.5 - - - - ENE 13 28 7 15 1014.1 1014.1 -
05/06:00am 23.7 - - - - E 17 32 9 17 1013.9 1013.9 -
05/05:30am 23.7 - - - - ENE 17 32 9 17 1013.6 1013.6 -
05/05:00am 23.8 - - - - ENE 19 35 10 19 1013.6 1013.6 -
05/04:30am 24.0 - - - - ENE 32 44 17 24 1013.0 1012.9 -
05/04:00am 24.4 - - - - ENE 33 46 18 25 1013.3 1013.2 -
05/03:30am 24.7 - - - - ENE 30 43 16 23 1013.4 1013.3 -
05/03:00am 24.4 - - - - ENE 28 37 15 20 1013.7 1013.7 -
05/02:30am 24.6 - - - - ENE 20 32 11 17 1014.1 1014.1 -
05/02:00am 25.0 - - - - ENE 22 35 12 19 1014.2 1014.2 -
05/01:30am 25.3 - - - - E 19 33 10 18 1014.3 1014.3 -
05/01:00am 25.7 - - - - E 20 35 11 19 1014.4 1014.4 -
05/12:30am 25.9 - - - - E 19 37 10 20 1014.4 1014.4 -
05/12:00am 26.3 - - - - ESE 24 33 13 18 1014.6 1014.6 -
 
Date/Time
CST
Temp
°C
App
Temp
°C
Dew
Point
°C
Rel
Hum
%
Delta-T
°C
Wind Press
QNH
hPa
Press
MSL
hPa
Rain since
9am
mm
Dir  Spd
km/h
Gust
km/h
Spd
kts
Gust
kts
04/11:30pm 26.4 - - - - ESE 22 28 12 15 1014.6 1014.6 -
04/11:00pm 26.0 - - - - SE 20 24 11 13 1014.8 1014.8 -
04/10:30pm 26.8 - - - - ESE 17 26 9 14 1014.7 1014.7 -
04/10:00pm 26.7 - - - - ESE 17 22 9 12 1014.7 1014.7 -
04/09:30pm 27.0 - - - - ESE 17 20 9 11 1014.5 1014.5 -
04/09:00pm 27.4 - - - - SE 15 20 8 11 1014.3 1014.3 -
04/08:30pm 28.1 - - - - SE 17 24 9 13 1013.9 1013.9 -
04/08:00pm 28.4 - - - - SE 15 22 8 12 1013.6 1013.6 -
04/07:30pm 28.9 - - - - SE 19 22 10 12 1013.2 1013.1 -
04/07:00pm 29.3 - - - - SE 20 28 11 15 1012.9 1012.8 -
04/06:30pm 29.6 - - - - SE 15 24 8 13 1012.5 1012.4 -
04/06:00pm 29.4 - - - - ESE 17 28 9 15 1012.2 1012.1 -
04/05:30pm 29.4 - - - - ESE 20 33 11 18 1012.0 1011.9 -
04/05:00pm 30.2 - - - - E 17 30 9 16 1011.9 1011.8 -
04/04:30pm 30.2 - - - - ESE 22 32 12 17 1011.9 1011.8 -
04/04:00pm 30.5 - - - - ESE 17 28 9 15 1011.9 1011.8 -
04/03:30pm 29.9 - - - - ESE 19 30 10 16 1012.3 1012.2 -
04/03:00pm 29.4 - - - - E 20 32 11 17 1012.5 1012.4 -
04/02:30pm 30.0 - - - - E 20 33 11 18 1012.7 1012.6 -
04/02:00pm 29.2 - - - - ESE 32 43 17 23 1013.0 1012.9 -
04/01:30pm 29.7 - - - - E 26 43 14 23 1013.6 1013.6 -
04/01:00pm 28.6 - - - - ESE 30 43 16 23 1014.1 1014.1 -
04/12:30pm 28.9 - - - - E 24 43 13 23 1014.6 1014.6 -
04/12:06pm 28.3 - - - - ESE 30 48 16 26 1014.9 1014.9 -
04/12:00pm 28.3 - - - - ESE 32 46 17 25 1015.1 1015.1 -
04/11:30am 27.9 - - - - ESE 30 46 16 25 1015.6 1015.6 -
04/11:05am 27.9 - - - - E 28 54 15 29 1015.7 1015.7 -
04/11:00am 27.9 - - - - E 26 44 14 24 1015.8 1015.8 -
04/10:34am 27.0 - - - - ESE 32 50 17 27 1015.9 1015.9 -
04/10:30am 26.8 - - - - ESE 35 44 19 24 1015.9 1015.9 -
04/10:02am 26.6 - - - - ESE 32 50 17 27 1016.0 1016.0 -
04/10:00am 26.6 - - - - ESE 33 50 18 27 1016.0 1016.0 -
04/09:30am 25.8 - - - - ESE 28 37 15 20 1016.1 1016.1 -
04/09:00am 25.4 - - - - ESE 22 30 12 16 1016.0 1016.0 -
04/08:30am 24.7 - - - - ESE 22 30 12 16 1015.7 1015.7 -
04/08:00am 24.9 - - - - ENE 13 22 7 12 1015.3 1015.3 -
04/07:30am 24.7 - - - - ENE 19 28 10 15 1014.9 1014.9 -
04/07:00am 24.8 - - - - ENE 13 24 7 13 1014.6 1014.6 -
04/06:30am 24.9 - - - - ENE 13 20 7 11 1014.6 1014.6 -
04/06:00am 24.7 - - - - ENE 15 22 8 12 1014.5 1014.5 -
04/05:30am 25.4 - - - - E 15 28 8 15 1014.4 1014.4 -
04/05:00am 25.7 - - - - ESE 20 28 11 15 1014.1 1014.1 -
04/04:30am 25.9 - - - - ESE 17 26 9 14 1014.1 1014.1 -
04/04:00am 26.5 - - - - E 9 17 5 9 1014.1 1014.1 -
04/03:30am 26.5 - - - - E 7 13 4 7 1014.3 1014.3 -
04/03:00am 25.6 - - - - SE 11 15 6 8 1014.4 1014.4 -
04/02:30am 25.2 - - - - SE 9 15 5 8 1014.7 1014.7 -
04/02:00am 25.1 - - - - SE 9 11 5 6 1015.1 1015.1 -
04/01:30am 25.4 - - - - SE 6 7 3 4 1015.1 1015.1 -
04/01:00am 25.5 - - - - SSE 6 9 3 5 1015.1 1015.1 -
04/12:30am 25.6 - - - - WSW 2 6 1 3 1015.2 1015.2 -
04/12:00am 25.8 - - - - WSW 4 9 2 5 1015.3 1015.3 -
 
Date/Time
CST
Temp
°C
App
Temp
°C
Dew
Point
°C
Rel
Hum
%
Delta-T
°C
Wind Press
QNH
hPa
Press
MSL
hPa
Rain since
9am
mm
Dir  Spd
km/h
Gust
km/h
Spd
kts
Gust
kts
03/11:30pm 26.1 - - - - WSW 4 11 2 6 1015.0 1015.0 -
03/11:00pm 26.2 - - - - S 4 9 2 5 1015.0 1015.0 -
03/10:30pm 26.3 - - - - S 6 11 3 6 1014.8 1014.8 -

Other formats

Comma delimited format used in spreadsheet applications
http://www.bom.gov.au/fwo/IDD60801/IDD60801.95122.axf

JavaScript Object Notation format (JSON) in row-major order
http://www.bom.gov.au/fwo/IDD60801/IDD60801.95122.json

Data quality

Most of these data are generated automatically and are frequently updated. Quality checks on data are not normally performed. It is possible for incorrect values to appear. Refer to information at About Latest Weather Observations and please check the disclaimer before using these data.